Ashland, Louisiana
Current Conditions -  °F | °C
As of 12:35 PM on Saturday 25 Oct 2014 (Local Time) from KIER Reporting Station
Clear Clear  
Wind Chill: 27°   Ceiling: Unl
Heat Index: 27°   Visibility: 10mi
Dew Point: 15°   Wind: 3mph
Humidity: 49%   Direction: 310°NW
Pressure: 30.16"   Gusts: NA
Location:  32.14°N, 93.1°W
Report Text: KIER 251735Z AUTO 31003KT 10SM CLR 27/15 A3016 RMK AO2 T02660152
Loading
Personal Weather Stations






























Interactive Weather Map
Tropical Storm Tracking
New forecast layout! Learn more

10-Day Weather Forecast

Advertisements
Track Severe Weather on mobile